Tiempo atmosférico en la estación meteorológica de Santa Susana, Barcelona (45 m.)



Fecha
DESCASC
Temp. máxima en grados centígrados (hora)
DESCASC
Temp. mínima en grados centígrados (hora)
DESCASC
Temp. media en grados centígrados
DESCASC
Racha de viento máxima en m/sg (hora)
DESCASC
Velocidad máxima media en intervalos de 10 minutos(hora)
DESCASC
Precipitaciones diarias en mm
DESCASC
Precipitaciones de 00:00 a 06:00 en mm
DESCASC
Precipitaciones de 06:00 a 12:00 en mm
DESCASC
Precipitaciones de 12:00 a 18:00 en mm
DESCASC
Precipitaciones de 18:00 a 24:00 en mm
DESCASC

Gráficas

Temp. máximas Temp. mínimas Temp. medias Precipitaciones Rachas de viento máximas Velocidades máximas media en intervalos de 10 minutos

Datos horarios

Fecha y hora oficial Temperatura (ºC) Velocidad del viento (km/h) Dirección del viento Racha (km/h) Dirección de racha Precipitación (mm) Presión (hPa) Tendencia (hPa) Humedad (%)
2021-03-01 23:00:00 10.3 6 Este 19 Este 0 -- -- 86
2021-03-01 22:00:00 10 4 Nordeste 9 Este 0 -- -- 86
2021-03-01 21:00:00 8.5 2 Este 7 Este 0 -- -- 86
2021-03-01 20:00:00 8.8 0 Calma 5 Este 0 -- -- 85
2021-03-01 19:00:00 9.7 0 Calma 9 Sudeste 0 -- -- 80
2021-03-01 18:00:00 12.2 0 Calma 14 Este 0 -- -- 72
2021-03-01 17:00:00 13 5 Este 15 Este 0 -- -- 71
2021-03-01 16:00:00 14 6 Este 23 Este 0 -- -- 60
2021-03-01 15:00:00 14.4 9 Este 23 Este 0 -- -- 60
2021-03-01 14:00:00 15.3 10 Este 22 Este 0 -- -- 57
2021-03-01 13:00:00 14.3 13 Este 22 Este 0 -- -- 60
2021-03-01 12:00:00 14.7 6 Este 18 Sudeste 0 -- -- 61
2021-03-01 11:00:00 12.7 8 Nordeste 15 Este 0 -- -- 71
2021-03-01 10:00:00 11.8 5 Nordeste 16 Este 0 -- -- 73
2021-03-01 09:00:00 10.8 9 Este 17 Este 0 -- -- 73
2021-03-01 08:00:00 10.4 7 Nordeste 17 Este 0 -- -- 73
2021-03-01 07:00:00 9.2 5 Nordeste 18 Este 0 -- -- 76
2021-03-01 06:00:00 9.4 5 Nordeste 14 Este 0 -- -- 80
2021-03-01 05:00:00 9.8 5 Este 17 Nordeste 0 -- -- 79
2021-03-01 04:00:00 10 4 Este 13 Este 0 -- -- 81
2021-03-01 03:00:00 10 4 Este 9 Este 0 -- -- 84
2021-03-01 02:00:00 10 2 Nordeste 15 Este 0 -- -- 80
2021-03-01 01:00:00 10.8 5 Este 17 Este 0 -- -- 77
2021-03-01 00:00:00 11 8 Este 17 Nordeste 0 -- -- 76
2021-02-28 23:00:00 11 6 Este 18 Nordeste 0 -- -- 78
2021-02-28 22:00:00 10.7 8 Este 19 Este 0 -- -- 79
2021-02-28 21:00:00 10.4 6 Norte 19 Norte 0 -- -- 79
2021-02-28 20:00:00 10.8 5 Este 16 Este 0 -- -- 74
2021-02-28 19:00:00 11.5 6 Este 15 Sudeste 0 -- -- 70
2021-02-28 18:00:00 12.9 6 Este 20 Sudeste 0 -- -- 61
2021-02-28 17:00:00 13.9 6 Este 19 Este 0 -- -- 59
2021-02-28 16:00:00 15.2 9 Este 22 Este 0 -- -- 50
2021-02-28 15:00:00 16.3 6 Este 22 Sudeste 0 -- -- 50
2021-02-28 14:00:00 15.9 9 Este 26 Este 0 -- -- 45
2021-02-28 13:00:00 15 14 Este 29 Sudeste 0 -- -- 50
2021-02-28 12:00:00 14.1 11 Este 27 Sudeste 0 -- -- 54
2021-02-28 11:00:00 11.7 9 Este 27 Este 0 -- -- 61
2021-02-28 10:00:00 10.9 7 Nordeste 23 Norte 0 -- -- 63
2021-02-28 09:00:00 7 3 Este 9 Norte 0 -- -- 91
2021-02-28 08:00:00 5 2 Norte 6 Noroeste 0 -- -- 91
2021-02-28 07:00:00 4.3 0 Calma 5 Norte 0 -- -- 91
2021-02-28 06:00:00 4.7 0 Calma 5 Nordeste 0 -- -- 91
2021-02-28 05:00:00 5.1 2 Este 4 Este 0 -- -- 91
2021-02-28 04:00:00 6 0 Calma 5 Este 0 -- -- 90
2021-02-28 03:00:00 6.4 0 Calma 4 Este 0 -- -- 90
2021-02-28 02:00:00 6.9 3 Este 12 Este 0 -- -- 89
2021-02-28 01:00:00 7.9 2 Este 5 Este 0 -- -- 89
2021-02-28 00:00:00 7.9 2 Este 5 Este 0 -- -- 89
2021-02-27 23:00:00 9.8 3 Este 6 Este 0 -- -- 89
2021-02-27 22:00:00 10.3 0 Calma 5 Sudoeste 0 -- -- 88
2021-02-27 21:00:00 10.5 2 Este 6 Sudoeste 0 -- -- 86
2021-02-27 20:00:00 12.1 4 Oeste 13 Oeste 0 -- -- 81
2021-02-27 19:00:00 12.3 3 Sudoeste 17 Sudoeste 0 -- -- 79
2021-02-27 18:00:00 12.7 4 Sudoeste 22 Oeste 0 -- -- 74
2021-02-27 17:00:00 13.1 12 Oeste 24 Sudoeste 0 -- -- 73
2021-02-27 16:00:00 14 13 Sudoeste 31 Sudoeste 0 -- -- 69
2021-02-27 15:00:00 13.8 17 Sudoeste -- -- -- -- -- 65
2021-02-27 14:00:00 14.2 14 Sudoeste 30 Sudoeste 0 -- -- 60
2021-02-27 13:00:00 13.9 12 Sudoeste 26 Sudoeste 0 -- -- 61
2021-02-27 12:00:00 13.3 12 Oeste 28 Oeste 0 -- -- 69
2021-02-27 11:00:00 13 8 Sudoeste 19 Oeste 0 -- -- 71
2021-02-27 10:00:00 9.5 0 Calma 4 Norte 0 -- -- 91
2021-02-27 09:00:00 7.2 4 Este 7 Este 0 -- -- 91
2021-02-27 08:00:00 5.2 2 Este 5 Este 0 -- -- 91
2021-02-27 07:00:00 4.9 3 Este 5 Este 0 -- -- 91
2021-02-27 06:00:00 5 2 Este 5 Este 0 -- -- 91
2021-02-27 05:00:00 5.5 0 Calma 4 Este 0 -- -- 91
2021-02-27 04:00:00 5.3 3 Este 5 Este 0 -- -- 91
2021-02-27 03:00:00 5.4 0 Calma 5 Este 0 -- -- 91
2021-02-27 02:00:00 5.3 2 Este 4 Este 0 -- -- 91
2021-02-27 01:00:00 5.4 3 Este 4 Este 0 -- -- 91
2021-02-27 00:00:00 5.8 2 Este 4 Este 0 -- -- 90
2021-02-26 23:00:00 6.1 2 Este 4 Este 0 -- -- 90
2021-02-26 22:00:00 6.4 0 Calma 4 Este 0 -- -- 90
2021-02-26 21:00:00 7.3 2 Este 5 Este 0 -- -- 89
2021-02-26 20:00:00 8.3 0 Calma 4 Oeste 0 -- -- 86
2021-02-26 19:00:00 9.9 3 Este 8 Oeste 0 -- -- 81
2021-02-26 18:00:00 11.8 3 Sudoeste 17 Sudoeste 0 -- -- 70
2021-02-26 17:00:00 13 9 Oeste 18 Sudoeste 0 -- -- 64
2021-02-26 16:00:00 14.2 10 Oeste 21 Oeste 0 -- -- 59
2021-02-26 15:00:00 14.6 9 Oeste 27 Sudoeste 0 -- -- 57
2021-02-26 14:00:00 14 10 Oeste 20 Oeste 0 -- -- 59
2021-02-26 13:00:00 14.4 5 Oeste 14 Sudoeste 0 -- -- 60
2021-02-26 12:00:00 12.9 5 Oeste 11 Oeste 0 -- -- 65
2021-02-26 11:00:00 13 2 Sudoeste 6 Este 0 -- -- 69
2021-02-26 10:00:00 12.3 2 Este 5 Sudeste 0 -- -- 80
2021-02-26 09:00:00 11.3 0 Calma 3 Noroeste 0 -- -- 89
2021-02-26 08:00:00 10.6 0 Calma 3 Oeste 0 -- -- 90
2021-02-26 07:00:00 10.4 0 Calma 4 Noroeste 0 -- -- 89
2021-02-26 06:00:00 10.7 0 Calma 4 Norte 0 -- -- 89
2021-02-26 05:00:00 10.6 0 Calma 5 Este 0 -- -- 89
2021-02-26 04:00:00 10.8 2 Norte 5 Norte 0 -- -- 89
2021-02-26 03:00:00 10.9 0 Calma 4 Este 0 -- -- 88
2021-02-26 02:00:00 10.9 0 Calma 6 Noroeste 0 -- -- 88
2021-02-26 01:00:00 10.4 0 Calma 6 Noroeste 0 -- -- 90
2021-02-26 00:00:00 10 0 Calma 3 Este 0 -- -- 90
2021-02-25 23:00:00 9.5 0 Calma 4 Este 0 -- -- 90
2021-02-25 22:00:00 8.6 0 Calma 3 Este 0 -- -- 90
2021-02-25 21:00:00 9.3 0 Calma 6 Noroeste 0 -- -- 89
2021-02-25 20:00:00 10.7 0 Calma 9 Sudoeste 0 -- -- 86
2021-02-25 19:00:00 11.3 4 Sudoeste 16 Sudoeste 0 -- -- 85
2021-02-25 18:00:00 12.3 7 Sudoeste 23 Oeste 0 -- -- 80
2021-02-25 17:00:00 12.8 12 Oeste 27 Sudoeste 0 -- -- 77
2021-02-25 16:00:00 13.9 14 Oeste 28 Oeste 0 -- -- 74
2021-02-25 15:00:00 14.6 12 Oeste 37 Sudoeste 0 -- -- 70
2021-02-25 14:00:00 14 10 Oeste 27 Sudoeste 0 -- -- 73
2021-02-25 13:00:00 14.1 9 Oeste 22 Sudoeste 0 -- -- 70
2021-02-25 12:00:00 13.7 10 Oeste 19 Oeste 0 -- -- 71
2021-02-25 11:00:00 13 7 Oeste 20 Sudoeste 0 -- -- 70
2021-02-25 10:00:00 11.7 9 Sudoeste 17 Sudoeste 0 -- -- 74
2021-02-25 09:00:00 10.6 4 Oeste 8 Oeste 0 -- -- 90
2021-02-25 08:00:00 8.6 0 Calma 7 Sudoeste 0 -- -- 91
2021-02-25 07:00:00 9.4 2 Oeste 7 Oeste 0 -- -- 90
2021-02-25 06:00:00 9 0 Calma 9 Sudoeste 0 -- -- 90
2021-02-25 05:00:00 8.9 0 Calma 5 Oeste 0 -- -- 90
2021-02-25 04:00:00 8.5 0 Calma 8 Oeste 0 -- -- 90
2021-02-25 03:00:00 8 0 Calma 10 Oeste 0 -- -- 90
2021-02-25 02:00:00 9.6 4 Sudoeste 13 Sudoeste 0 -- -- 89
2021-02-25 01:00:00 8.7 4 Oeste 15 Oeste 0 -- -- 89
2021-02-25 00:00:00 9.5 4 Oeste 14 Noroeste 0 -- -- 90
2021-02-24 23:00:00 6.9 5 Oeste 12 Sudoeste 0 -- -- 90
2021-02-24 22:00:00 7.2 0 Calma 6 Oeste 0 -- -- 90
2021-02-24 21:00:00 9.4 4 Oeste 16 Sudoeste 0 -- -- 88
2021-02-24 20:00:00 11.3 8 Sudoeste 16 Sudoeste 0 -- -- 87
2021-02-24 19:00:00 11.8 7 Sudoeste 14 Sudoeste 0 -- -- 85
2021-02-24 18:00:00 12.4 8 Sudoeste 22 Sudoeste 0 -- -- 80
2021-02-24 17:00:00 13.7 12 Sudoeste 28 Sudoeste 0 -- -- 71
2021-02-24 16:00:00 14.4 14 Sudoeste 26 Sudoeste 0 -- -- 64
2021-02-24 15:00:00 14.6 14 Sudoeste 26 Oeste 0 -- -- 69
2021-02-24 14:00:00 15.6 10 Sudoeste 21 Sudoeste 0 -- -- 62
2021-02-24 13:00:00 14.8 11 Sudoeste 23 Sudoeste 0 -- -- 71
2021-02-24 12:00:00 13.6 12 Sudoeste 24 Sudoeste 0 -- -- 74
2021-02-24 11:00:00 13.7 7 Oeste 19 Sudoeste 0 -- -- 78
2021-02-24 10:00:00 13 9 Sudoeste 17 Sudoeste 0 -- -- 84
2021-02-24 09:00:00 11.2 0 Calma 5 Oeste 0 -- -- 91
2021-02-24 08:00:00 9.7 0 Calma 2 Norte 0 -- -- 91
2021-02-24 07:00:00 9.9 0 Calma 0 Calma 0 -- -- 91
2021-02-24 06:00:00 9.9 0 Calma 3 Norte 0 -- -- 91
2021-02-24 05:00:00 9.2 0 Calma -- -- 0 -- -- 91
2021-02-24 04:00:00 8.5 0 Calma -- -- 0 -- -- 91
2021-02-24 03:00:00 9.6 0 Calma 3 Este 0 -- -- 91
2021-02-24 02:00:00 9.8 0 Calma 3 Este 0 -- -- 91
2021-02-24 01:00:00 8.7 0 Calma 4 Este 0 -- -- 91
2021-02-24 00:00:00 8.6 0 Calma 4 Este 0 -- -- 90
2021-02-23 23:00:00 9.7 0 Calma 5 Este 0 -- -- 90
2021-02-23 22:00:00 11.1 0 Calma 3 Este 0 -- -- 90
2021-02-23 21:00:00 12.7 0 Calma 2 Sudoeste 0 -- -- 89
2021-02-23 20:00:00 12.5 0 Calma 2 Este 0 -- -- 89
2021-02-23 19:00:00 12.2 0 Calma 6 Sur 0 -- -- 89
2021-02-23 18:00:00 13.3 4 Oeste 11 Oeste 0 -- -- 87
2021-02-23 17:00:00 13.9 3 Oeste 14 Oeste 0 -- -- 84
2021-02-23 16:00:00 15.1 0 Calma 13 Oeste 0 -- -- 77
2021-02-23 15:00:00 16.3 0 Calma 16 Oeste 0 -- -- 67
2021-02-23 14:00:00 16.6 8 Oeste 14 Sudoeste 0 -- -- 66
2021-02-23 13:00:00 15.8 6 Este 14 Sudoeste 0 -- -- 76
2021-02-23 12:00:00 15.4 0 Calma 12 Este 0 -- -- 70
2021-02-23 11:00:00 15 5 Este 10 Este 0 -- -- 74
2021-02-23 10:00:00 13.9 5 Norte 12 Norte 0 -- -- 79
2021-02-23 09:00:00 12.6 6 Norte 12 Norte 0 -- -- 84
2021-02-23 08:00:00 12 3 Norte 12 Norte 0 -- -- 86
2021-02-23 07:00:00 11.7 3 Norte 14 Norte 0 -- -- 86
2021-02-23 06:00:00 11.7 7 Nordeste 19 Este 0 -- -- 87
2021-02-23 05:00:00 11.9 5 Nordeste 11 Norte 0 -- -- 90
2021-02-23 04:00:00 11.4 0 Calma 4 Oeste 0 -- -- 91
2021-02-23 03:00:00 11.1 0 Calma 3 Sudeste 0 -- -- 91
2021-02-23 02:00:00 11.3 0 Calma 3 Este 0 -- -- 91
2021-02-23 01:00:00 11.3 0 Calma 4 Este 0 -- -- 91
2021-02-23 00:00:00 11.4 0 Calma 5 Norte 0 -- -- 91
2021-02-22 23:00:00 11.6 0 Calma 3 Norte 0 -- -- 91
2021-02-22 22:00:00 11.6 0 Calma 4 Este 0 -- -- 91
2021-02-22 21:00:00 11.7 0 Calma 9 Oeste 0 -- -- 91
2021-02-22 20:00:00 12.5 6 Oeste 13 Nordeste 0 -- -- 91
2021-02-22 19:00:00 13 2 Este 12 Este 0 -- -- 90
2021-02-22 18:00:00 13.2 4 Este 13 Este 0 -- -- 90
2021-02-22 17:00:00 13.5 6 Este 14 Este 0 -- -- 89
2021-02-22 16:00:00 14 4 Este 11 Este 0 -- -- 88
2021-02-22 15:00:00 14.5 5 Este 11 Este 0 -- -- 90
2021-02-22 14:00:00 13.4 4 Oeste 10 Oeste 0.1 -- -- 91
2021-02-22 13:00:00 13.7 0 Calma 8 Noroeste 0.3 -- -- 91
2021-02-22 12:00:00 13.5 5 Norte 12 Este 0 -- -- 91
2021-02-22 11:00:00 13.3 4 Norte 10 Este 0.1 -- -- 91
2021-02-22 10:00:00 12.8 0 Calma 10 Este 0 -- -- 91
2021-02-22 09:00:00 13 3 Nordeste 8 Sudoeste 0.3 -- -- 91
2021-02-22 08:00:00 12.8 0 Calma 13 Nordeste 0.5 -- -- 90
2021-02-22 07:00:00 13.1 4 Este 14 Nordeste 0 -- -- 89
2021-02-22 06:00:00 13.2 5 Este 17 Este 0 -- -- 89
2021-02-22 05:00:00 13.3 7 Este 21 Nordeste 0 -- -- 87
2021-02-22 04:00:00 13.3 8 Este 17 Este 0 -- -- 86
2021-02-22 03:00:00 13.3 2 Sudeste 19 Nordeste 0 -- -- 86
2021-02-22 02:00:00 13.1 3 Este 17 Nordeste 0 -- -- 86
2021-02-22 01:00:00 12.7 4 Nordeste 20 Este 0 -- -- 86
2021-02-22 00:00:00 12.7 7 Norte 22 Noroeste 0 -- -- 85
2021-02-21 23:00:00 12.9 8 Nordeste 24 Nordeste 0 -- -- 81
2021-02-21 22:00:00 13 9 Nordeste 18 Nordeste 0 -- -- 79
2021-02-21 21:00:00 12.8 6 Norte 20 Este 0 -- -- 77
2021-02-21 20:00:00 13 8 Nordeste 22 Este 0 -- -- 76
2021-02-21 19:00:00 13.2 13 Este 30 Este 0 -- -- 74
2021-02-21 18:00:00 13.4 9 Este 26 Este 0 -- -- 73
2021-02-21 17:00:00 13.5 10 Este 26 Este 0 -- -- 71
2021-02-21 16:00:00 13.6 9 Este 31 Este 0 -- -- 71
2021-02-21 15:00:00 14.2 10 Este 29 Este 0 -- -- 69
2021-02-21 14:00:00 14.4 9 Este 33 Sudeste 0 -- -- 67
2021-02-21 13:00:00 14 7 Este 28 Este 0 -- -- 66
2021-02-21 12:00:00 13.4 7 Este 20 Este 0 -- -- 70
2021-02-21 11:00:00 12 10 Nordeste 24 Este 0 -- -- 74
2021-02-21 10:00:00 10.9 9 Nordeste 20 Este 0 -- -- 76
2021-02-21 09:00:00 10.2 8 Este 18 Este 0 -- -- 76
2021-02-21 08:00:00 10 9 Este 20 Este 0 -- -- 79
2021-02-21 07:00:00 9.5 2 Este 9 Sudeste 0 -- -- 86
2021-02-21 06:00:00 9.3 4 Noroeste 10 Este 0 -- -- 85
2021-02-21 05:00:00 9.2 3 Este 13 Noroeste 0 -- -- 84
2021-02-21 04:00:00 8.9 2 Nordeste 9 Nordeste 0 -- -- 90
2021-02-21 03:00:00 6.6 0 Calma 4 Este 0 -- -- 91
2021-02-21 02:00:00 6.2 3 Este 6 Este 0 -- -- 91
2021-02-21 01:00:00 5.2 4 Este 6 Este 0 -- -- 91
2021-02-21 00:00:00 5.5 2 Este 6 Este 0 -- -- 90
2021-02-20 23:00:00 5.7 2 Este 5 Este 0 -- -- 90
2021-02-20 22:00:00 6.3 0 Calma 4 Este 0 -- -- 90
2021-02-20 21:00:00 7.5 0 Calma 4 Este 0 -- -- 88
2021-02-20 20:00:00 9.2 0 Calma 14 Oeste 0 -- -- 82
2021-02-20 19:00:00 11.2 7 Oeste 13 Oeste 0 -- -- 74
2021-02-20 18:00:00 11 5 Oeste 19 Oeste 0 -- -- 76
2021-02-20 17:00:00 12.2 11 Oeste 24 Sudoeste 0 -- -- 67
2021-02-20 16:00:00 12.3 13 Sudoeste 26 Sudoeste 0 -- -- 66
2021-02-20 15:00:00 12.4 10 Sudoeste 28 Sur 0 -- -- 66
2021-02-20 14:00:00 12.2 12 Sudoeste 24 Oeste 0 -- -- 67
2021-02-20 13:00:00 11.6 9 Oeste 24 Sudoeste 0 -- -- 72
2021-02-20 12:00:00 12 12 Oeste 29 Sudoeste 0 -- -- 69
2021-02-20 11:00:00 12 3 Oeste 17 Sur 0 -- -- 70
2021-02-20 10:00:00 10.5 7 Noroeste 21 Noroeste 0 -- -- 74
2021-02-20 09:00:00 10 3 Noroeste 18 Noroeste 0 -- -- 77
2021-02-20 08:00:00 9.4 3 Oeste 20 Sudoeste 0 -- -- 80
2021-02-20 07:00:00 9 7 Oeste 27 Noroeste 0 -- -- 82
2021-02-20 06:00:00 9 5 Sudoeste 22 Oeste 0 -- -- 85
2021-02-20 05:00:00 9.1 12 Oeste 20 Sudoeste 0 -- -- 86
2021-02-20 04:00:00 9.3 4 Sudoeste 21 Oeste 0 -- -- 87
2021-02-20 03:00:00 9.4 7 Oeste 21 Sudoeste 0 -- -- 89
2021-02-20 02:00:00 9.4 8 Sudoeste 20 Oeste 0 -- -- 90
2021-02-20 01:00:00 9.8 5 Sudoeste 19 Sur 0 -- -- 90
2021-02-20 00:00:00 10 2 Sudoeste 27 Sudoeste 0 -- -- 89
2021-02-19 23:00:00 10.1 3 Sudoeste 26 Oeste 0 -- -- 89
2021-02-19 22:00:00 9.9 12 Oeste 23 Oeste 0 -- -- 89
2021-02-19 21:00:00 10.1 8 Oeste 19 Oeste 0 -- -- 87
2021-02-19 20:00:00 10.4 13 Oeste 25 Oeste 0 -- -- 86
2021-02-19 19:00:00 10.4 9 Oeste 20 Noroeste 0 -- -- 85
2021-02-19 18:00:00 10.6 8 Oeste 30 Oeste 0 -- -- 84
2021-02-19 17:00:00 10.9 17 Sudoeste 35 Oeste 0 -- -- 83
2021-02-19 16:00:00 10.6 20 Sudoeste 35 Sudoeste 0 -- -- 81
2021-02-19 15:00:00 11.6 17 Oeste 30 Sudoeste 0 -- -- 75
2021-02-19 14:00:00 12.3 13 Oeste 27 Sudoeste 0 -- -- 70
2021-02-19 13:00:00 12.3 12 Sudoeste 22 Sudoeste 0 -- -- 70
2021-02-19 12:00:00 11.5 8 Oeste 17 Noroeste 0 -- -- 72
2021-02-19 11:00:00 10.9 7 Sudoeste 15 Sudoeste 0 -- -- 75
2021-02-19 10:00:00 10.7 2 Oeste 7 Sudoeste 0 -- -- 81
2021-02-19 09:00:00 9.4 0 Calma 4 Norte 0 -- -- 91
2021-02-19 08:00:00 8.6 0 Calma 4 Nordeste 0 -- -- 91
2021-02-19 07:00:00 8.4 0 Calma 3 Oeste 0 -- -- 91
2021-02-19 06:00:00 7.5 0 Calma 8 Norte 0 -- -- 91
2021-02-19 05:00:00 6.5 3 Este 9 Norte 0 -- -- 91
2021-02-19 04:00:00 6.1 5 Este 8 Este 0 -- -- 91
2021-02-19 03:00:00 8.1 2 Nordeste 10 Nordeste 0 -- -- 91
2021-02-19 02:00:00 5.6 0 Calma 5 Este 0 -- -- 91
2021-02-19 01:00:00 5.7 0 Calma 5 Este 0 -- -- 91
2021-02-19 00:00:00 6.4 0 Calma 6 Este 0 -- -- 90
2021-02-18 23:00:00 8.2 0 Calma 16 Oeste 0 -- -- 86
2021-02-18 22:00:00 9.3 0 Calma 14 Oeste 0 -- -- 86
2021-02-18 21:00:00 10.7 5 Oeste 14 Sudoeste 0 -- -- 81
2021-02-18 20:00:00 10.6 5 Oeste 23 Sudoeste 0 -- -- 81
2021-02-18 19:00:00 11.1 10 Sudoeste 26 Oeste 0 -- -- 79
2021-02-18 18:00:00 11.3 12 Oeste 30 Sudoeste 0 -- -- 76
2021-02-18 17:00:00 11.7 14 Sudoeste 35 Oeste 0 -- -- 76
2021-02-18 16:00:00 12.2 15 Oeste 35 Sudoeste 0 -- -- 71
2021-02-18 15:00:00 13.3 16 Oeste 34 Sudoeste 0 -- -- 66
2021-02-18 14:00:00 12.5 15 Sudoeste 35 Oeste 0 -- -- 66
2021-02-18 13:00:00 12.1 10 Sudoeste 26 Sudoeste 0 -- -- 70
2021-02-18 12:00:00 11.7 2 Noroeste 27 Noroeste 0 -- -- 76
2021-02-18 11:00:00 10.9 9 Noroeste 27 Noroeste 0 -- -- 79
2021-02-18 10:00:00 10.5 6 Oeste 23 Oeste 0 -- -- 82
2021-02-18 09:00:00 10 11 Oeste 24 Oeste 0 -- -- 85
2021-02-18 08:00:00 9.5 10 Oeste 28 Oeste 0 -- -- 87
2021-02-18 07:00:00 9.4 13 Oeste 31 Oeste 0 -- -- 90
2021-02-18 06:00:00 9.3 16 Oeste 32 Oeste 0 -- -- 90
2021-02-18 05:00:00 9.1 11 Oeste 23 Oeste 0 -- -- 91
2021-02-18 04:00:00 9.1 10 Oeste 27 Oeste 0 -- -- 91
2021-02-18 03:00:00 9.1 14 Oeste 31 Oeste 0 -- -- 91
2021-02-18 02:00:00 9.5 14 Oeste 29 Oeste 0 -- -- 90
2021-02-18 01:00:00 9.9 14 Oeste 28 Oeste 0 -- -- 89
2021-02-18 00:00:00 10.3 8 Sudoeste 24 Sudoeste 0 -- -- 88
2021-02-17 23:00:00 10.6 2 Noroeste 24 Noroeste 0 -- -- 87
2021-02-17 22:00:00 10.6 10 Sudoeste 26 Oeste 0 -- -- 89
2021-02-17 21:00:00 10.6 15 Sudoeste 25 Sudoeste 0 -- -- 87
2021-02-17 20:00:00 10.7 14 Oeste 26 Sudoeste 0 -- -- 85
2021-02-17 19:00:00 10.7 11 Oeste 25 Oeste 0 -- -- 85
2021-02-17 18:00:00 11.3 10 Oeste 31 Sudoeste 0 -- -- 81
2021-02-17 17:00:00 11.9 19 Sudoeste 35 Sudoeste 0 -- -- 79
2021-02-17 16:00:00 12 22 Sudoeste 35 Sudoeste 0 -- -- 79
2021-02-17 15:00:00 13.4 16 Oeste 30 Oeste 0 -- -- 74
2021-02-17 14:00:00 13.7 13 Oeste 27 Sudoeste 0 -- -- 72
2021-02-17 13:00:00 14.7 10 Sudoeste 20 Sudoeste 0 -- -- 56
2021-02-17 12:00:00 13.9 9 Sudoeste 18 Sudoeste 0 -- -- 67
2021-02-17 11:00:00 11.3 0 Calma 10 Oeste 0 -- -- 90
2021-02-17 10:00:00 8.9 0 Calma 3 Este 0 -- -- 91
2021-02-17 09:00:00 6.9 0 Calma 5 Noroeste 0 -- -- 91
2021-02-17 08:00:00 6.1 0 Calma 4 Este 0 -- -- 91
2021-02-17 07:00:00 6.1 2 Este 5 Este 0 -- -- 91
2021-02-17 06:00:00 6.2 3 Este 6 Este 0 -- -- 91
2021-02-17 05:00:00 6.3 0 Calma 5 Este 0 -- -- 91
2021-02-17 04:00:00 6.8 4 Este 5 Este 0 -- -- 91
2021-02-17 03:00:00 7.9 0 Calma 5 Este 0 -- -- 90
2021-02-17 02:00:00 8.8 0 Calma 4 Este 0 -- -- 90
2021-02-17 01:00:00 9 3 Este 5 Este 0 -- -- 90
2021-02-17 00:00:00 8.2 0 Calma 5 Sudeste 0 -- -- 90
2021-02-16 23:00:00 8 2 Este 6 Este 0 -- -- 90
2021-02-16 22:00:00 8.6 0 Calma 12 Este 0 -- -- 90
2021-02-16 21:00:00 6.9 0 Calma 6 Noroeste 0 -- -- 90
2021-02-16 20:00:00 8.4 3 Este 8 Sudeste 0 -- -- 88
2021-02-16 19:00:00 10.4 3 Sudoeste 26 Oeste 0 -- -- 83
2021-02-16 18:00:00 11.5 9 Oeste 23 Oeste 0 -- -- 76
2021-02-16 17:00:00 12.4 6 Oeste 36 Oeste 0 -- -- 71
2021-02-16 16:00:00 13.3 14 Sudoeste 38 Sudoeste 0 -- -- 67
2021-02-16 15:00:00 12.9 9 Sudoeste 33 Oeste 0 -- -- 70
2021-02-16 14:00:00 13.1 11 Sudoeste 36 Sur 0 -- -- 68
2021-02-16 13:00:00 13.3 12 Sudoeste 36 Sudoeste 0 -- -- 62
2021-02-16 12:00:00 12.8 12 Oeste 37 Sur 0.1 -- -- 61
2021-02-16 11:00:00 12.2 6 Oeste 25 Norte 0.4 -- -- 64
2021-02-16 10:00:00 11.6 3 Noroeste 36 Noroeste 0 -- -- 71
2021-02-16 09:00:00 11.3 4 Oeste 35 Noroeste 0 -- -- 72
2021-02-16 08:00:00 10.9 13 Oeste 36 Sudoeste 0 -- -- 74
2021-02-16 07:00:00 10.6 14 Oeste 42 Oeste 0 -- -- 75
2021-02-16 06:00:00 10.7 5 Noroeste 28 Noroeste 0 -- -- 75
2021-02-16 05:00:00 10.3 8 Oeste 31 Noroeste 0 -- -- 76
2021-02-16 04:00:00 10.1 8 Oeste 29 Oeste 0 -- -- 79
2021-02-16 03:00:00 10.3 8 Noroeste 32 Norte 0 -- -- 77
2021-02-16 02:00:00 10.1 5 Noroeste 18 Noroeste 0 -- -- 82
2021-02-16 01:00:00 9.8 3 Noroeste 22 Noroeste 0 -- -- 85
2021-02-16 00:00:00 9.7 4 Noroeste 18 Noroeste 0 -- -- 83
2021-02-15 23:00:00 9.6 4 Noroeste 17 Noroeste 0 -- -- 79
2021-02-15 22:00:00 9.4 3 Oeste 15 Oeste 0 -- -- 77
2021-02-15 21:00:00 9.6 3 Oeste 15 Sudoeste 0 -- -- 75
2021-02-15 20:00:00 9.6 3 Oeste 13 Norte 0 -- -- 74
2021-02-15 19:00:00 9.9 3 Noroeste 14 Norte 0 -- -- 68
2021-02-15 18:00:00 10.1 4 Oeste 18 Oeste 0 -- -- 66
2021-02-15 17:00:00 9.7 9 Sudoeste 23 Oeste 0 -- -- 69
2021-02-15 16:00:00 10.1 9 Sudoeste 21 Sudoeste 0 -- -- 66
2021-02-15 15:00:00 10 5 Sudoeste 20 Oeste 0 -- -- 67
2021-02-15 14:00:00 9.9 6 Oeste 18 Sur 0 -- -- 67
2021-02-15 13:00:00 9.5 5 Oeste 12 Oeste 0 -- -- 69
2021-02-15 12:00:00 9.7 2 Oeste 9 Norte 0 -- -- 70
2021-02-15 11:00:00 9 0 Calma 6 Norte 0 -- -- 80
2021-02-15 10:00:00 7.7 0 Calma 4 Norte 0 -- -- 91
2021-02-15 09:00:00 6.6 0 Calma 6 Noroeste 0 -- -- 91
2021-02-15 08:00:00 6 0 Calma 4 Noroeste 0 -- -- 91
2021-02-15 07:00:00 6 0 Calma 5 Este 0 -- -- 91
2021-02-15 06:00:00 5.9 0 Calma 3 Este 0 -- -- 91
2021-02-15 05:00:00 5.8 0 Calma 6 Noroeste 0 -- -- 91
2021-02-15 04:00:00 5.7 0 Calma 5 Este 0 -- -- 91
2021-02-15 03:00:00 5.8 2 Este 4 Este 0 -- -- 91
2021-02-15 02:00:00 5.5 0 Calma -- -- 0 -- -- 91
2021-02-15 01:00:00 5.5 0 Calma -- -- 0 -- -- 91
2021-02-15 00:00:00 5.4 0 Calma -- -- 0 -- -- 91
2021-02-14 23:00:00 5.5 0 Calma 3 Nordeste 0 -- -- 91
2021-02-14 22:00:00 5.6 0 Calma 5 Nordeste 0 -- -- 91
2021-02-14 21:00:00 5.6 0 Calma 5 Este 0 -- -- 90
2021-02-14 20:00:00 5.6 0 Calma 6 Este 0 -- -- 90
2021-02-14 19:00:00 6 3 Nordeste 6 Norte 0 -- -- 90
2021-02-14 18:00:00 6.3 2 Nordeste 6 Nordeste 0 -- -- 90
2021-02-14 17:00:00 6.6 2 Noroeste 12 Norte 0.1 -- -- 89
2021-02-14 16:00:00 6.8 3 Norte 6 Norte 0 -- -- 91
2021-02-14 15:00:00 6.4 0 Calma 5 Sur 0 -- -- 91
2021-02-14 14:00:00 6.4 0 Calma 7 Sudeste 0 -- -- 91
2021-02-14 13:00:00 6.3 2 Este 10 Este 0.1 -- -- 91
2021-02-14 12:00:00 7 0 Calma 5 Norte 0.4 -- -- 90
2021-02-14 11:00:00 7.3 0 Calma 8 Norte 0.3 -- -- 90
2021-02-14 10:00:00 7.1 3 Nordeste 11 Noroeste 0.6 -- -- 90
2021-02-14 09:00:00 7.3 4 Nordeste 16 Norte 0.2 -- -- 90
2021-02-14 08:00:00 7.3 6 Nordeste 16 Nordeste 0.2 -- -- 90
2021-02-14 07:00:00 7.5 7 Norte 15 Este 0 -- -- 89
2021-02-14 06:00:00 7.9 4 Nordeste 14 Este 0 -- -- 84
2021-02-14 05:00:00 7.7 6 Este 15 Norte 0 -- -- 86
2021-02-14 04:00:00 7.8 7 Norte 16 Norte 0 -- -- 88
2021-02-14 03:00:00 8 4 Nordeste 16 Este 0.2 -- -- 91
2021-02-14 02:00:00 8.2 2 Este 14 Este 1.8 -- -- 91
2021-02-14 01:00:00 9.6 4 Sudeste 13 Este 0.2 -- -- 91
2021-02-14 00:00:00 10.4 0 Calma 10 Oeste 0.1 -- -- 91
2021-02-13 23:00:00 10 2 Este 5 Sudoeste 0.3 -- -- 91
2021-02-13 22:00:00 10.2 0 Calma 7 Oeste 0.6 -- -- 90
2021-02-13 21:00:00 10.7 2 Oeste 13 Oeste 0 -- -- 86
2021-02-13 20:00:00 10.9 0 Calma 7 Nordeste 0 -- -- 86
2021-02-13 19:00:00 11.2 3 Oeste 25 Oeste 0.1 -- -- 85
2021-02-13 18:00:00 11.5 4 Oeste 15 Oeste 0 -- -- 85
2021-02-13 17:00:00 11.4 8 Oeste 16 Oeste 0.1 -- -- 86
2021-02-13 16:00:00 11.8 5 Oeste 23 Oeste 0.1 -- -- 84
2021-02-13 15:00:00 12.1 13 Oeste 27 Oeste 0 -- -- 79
2021-02-13 14:00:00 12.6 12 Sudoeste 31 Sudoeste 0 -- -- 75
2021-02-13 13:00:00 13.5 10 Oeste 28 Sudoeste 0 -- -- 59
2021-02-13 08:00:00 6.6 0 Calma 5 Este 0 -- -- 91
2021-02-13 07:00:00 6.6 2 Este 9 Este 0 -- -- 91
2021-02-13 06:00:00 7.1 0 Calma 5 Este 0 -- -- 91
2021-02-13 05:00:00 7.2 0 Calma 6 Este 0 -- -- 91
2021-02-13 04:00:00 6.5 3 Este 5 Este 0 -- -- 91
2021-02-13 03:00:00 8 2 Este 6 Noroeste 0 -- -- 91
2021-02-13 02:00:00 9.6 2 Este 5 Este 0 -- -- 91
2021-02-13 01:00:00 9.3 0 Calma 5 Norte 0 -- -- 91
2021-02-13 00:00:00 9 0 Calma 3 Este 0 -- -- 91
2021-02-12 23:00:00 8.8 0 Calma 6 Este 0 -- -- 91
2021-02-12 22:00:00 8.5 3 Este 9 Nordeste 0.1 -- -- 91
2021-02-12 21:00:00 9.1 5 Este 9 Nordeste 0 -- -- 91
2021-02-12 20:00:00 9.3 3 Nordeste 7 Noroeste 0.6 -- -- 90
2021-02-12 19:00:00 10 10 Este 25 Nordeste 1 -- -- 86
2021-02-12 18:00:00 11.9 8 Este 15 Este 0 -- -- 71
2021-02-12 17:00:00 11.9 4 Este 13 Este 0 -- -- 77
2021-02-12 16:00:00 13.3 3 Este 11 Este 0 -- -- 75
2021-02-12 15:00:00 12.3 8 Este 13 Sudeste 0 -- -- 76
2021-02-12 14:00:00 12.1 5 Oeste 13 Oeste 0 -- -- 74
2021-02-12 13:00:00 13.3 6 Sudoeste 12 Sudoeste 0 -- -- 63
2021-02-12 12:00:00 13.1 2 Noroeste 13 Noroeste 0 -- -- 66
2021-02-12 11:00:00 10.6 6 Noroeste 15 Este 0 -- -- 74
2021-02-12 10:00:00 8.7 9 Este 18 Este 0 -- -- 80
2021-02-12 09:00:00 7.8 2 Nordeste 6 Norte 0 -- -- 91
2021-02-12 08:00:00 5.8 0 Calma 5 Norte 0 -- -- 91
2021-02-12 07:00:00 5.4 0 Calma 5 Este 0 -- -- 91
2021-02-12 06:00:00 5 0 Calma 7 Este 0 -- -- 91
2021-02-12 05:00:00 4.7 0 Calma 5 Este 0 -- -- 91
2021-02-12 04:00:00 4.7 0 Calma 4 Este 0 -- -- 91
2021-02-12 03:00:00 5.2 2 Este 8 Este 0 -- -- 91
2021-02-12 02:00:00 4.9 4 Este 6 Este 0 -- -- 91
2021-02-12 01:00:00 5.5 0 Calma 6 Este 0 -- -- 91
2021-02-12 00:00:00 5.5 0 Calma 6 Este 0 -- -- 90
2021-02-11 23:00:00 5.4 0 Calma 4 Este 0 -- -- 90
2021-02-11 22:00:00 6.1 0 Calma 5 Este 0 -- -- 89
2021-02-11 21:00:00 6.2 0 Calma 6 Este 0 -- -- 89
2021-02-11 20:00:00 7 0 Calma 4 Este 0 -- -- 86
2021-02-11 19:00:00 8.2 0 Calma 10 Sudoeste 0 -- -- 83
2021-02-11 18:00:00 11.3 8 Oeste 19 Oeste 0 -- -- 70
2021-02-11 17:00:00 11.9 13 Sudoeste 24 Sudoeste 0 -- -- 59
2021-02-11 16:00:00 13.9 11 Sudoeste 26 Sudoeste 0 -- -- 48
2021-02-11 15:00:00 14.7 10 Oeste 16 Oeste 0 -- -- 43
2021-02-11 14:00:00 14.4 9 Oeste 17 Sudoeste 0 -- -- 52
2021-02-11 13:00:00 13.1 8 Oeste 17 Oeste 0 -- -- 62
2021-02-11 12:00:00 13.3 0 Calma 9 Oeste 0 -- -- 61
2021-02-11 11:00:00 11.2 2 Este 8 Este 0 -- -- 74
2021-02-11 10:00:00 9.3 2 Este 9 Este 0 -- -- 81
2021-02-11 09:00:00 6.7 2 Este 6 Este 0 -- -- 90
2021-02-11 08:00:00 5.4 4 Este 7 Este 0 -- -- 91
2021-02-11 07:00:00 4.8 4 Este 12 Nordeste 0 -- -- 91
2021-02-11 06:00:00 5.3 3 Este 6 Este 0 -- -- 91
2021-02-11 05:00:00 4.7 3 Este 8 Este 0 -- -- 91
2021-02-11 04:00:00 4.6 5 Este 9 Este 0 -- -- 91
2021-02-11 03:00:00 5.3 0 Calma 6 Nordeste 0 -- -- 91
2021-02-11 02:00:00 4.9 2 Este 8 Este 0 -- -- 91
2021-02-11 01:00:00 5.3 0 Calma 8 Este 0 -- -- 90
2021-02-11 00:00:00 5.4 0 Calma 8 Este 0 -- -- 90
2021-02-10 23:00:00 6.4 0 Calma 13 Norte 0 -- -- 89
2021-02-10 22:00:00 4.9 4 Este 5 Este 0 -- -- 89
2021-02-10 21:00:00 5.6 2 Este 4 Este 0 -- -- 88
2021-02-10 20:00:00 6.8 2 Nordeste 8 Oeste 0 -- -- 85
2021-02-10 19:00:00 7.7 4 Oeste 14 Sur 0 -- -- 82
2021-02-10 18:00:00 11.2 4 Sudoeste 18 Sudoeste 0 -- -- 64
2021-02-10 17:00:00 11.7 11 Oeste 20 Sudoeste 0 -- -- 62
2021-02-10 16:00:00 13.4 9 Oeste 18 Oeste 0 -- -- 55
2021-02-10 15:00:00 14.6 8 Este 21 Este 0 -- -- 50
2021-02-10 14:00:00 13.6 6 Nordeste 25 Este 0 -- -- 55
2021-02-10 13:00:00 12.6 6 Norte 14 Este 0 -- -- 54
2021-02-10 12:00:00 11.6 0 Calma 8 Noroeste 0 -- -- 61
2021-02-10 11:00:00 9.9 3 Este 9 Nordeste 0 -- -- 72
2021-02-10 10:00:00 8.5 3 Este 5 Nordeste 0 -- -- 76
2021-02-10 09:00:00 8.1 2 Norte 11 Este 0 -- -- 72
2021-02-10 08:00:00 8.7 5 Sudoeste 18 Nordeste 0 -- -- 64
2021-02-10 07:00:00 9.4 4 Oeste 27 Oeste 0 -- -- 61
2021-02-10 06:00:00 7.9 3 Oeste 17 Norte 0 -- -- 68
2021-02-10 05:00:00 10.8 4 Noroeste 24 Norte 0 -- -- 54
2021-02-10 04:00:00 10.8 5 Noroeste 31 Oeste 0 -- -- 56
2021-02-10 03:00:00 10.8 6 Oeste 27 Noroeste 0 -- -- 56
2021-02-10 02:00:00 10.9 8 Oeste 28 Oeste 0 -- -- 59
2021-02-10 01:00:00 10.9 7 Oeste 33 Sudoeste 0 -- -- 60
2021-02-10 00:00:00 11.4 9 Oeste 42 Sudoeste 0 -- -- 63
2021-02-09 23:00:00 11.9 10 Oeste 30 Sudoeste 0 -- -- 70
2021-02-09 22:00:00 11.8 8 Oeste 38 Sudoeste 0 -- -- 66
2021-02-09 21:00:00 12.5 12 Oeste 41 Sudoeste 0 -- -- 60
2021-02-09 20:00:00 12.4 7 Oeste 35 Oeste 0 -- -- 59
2021-02-09 19:00:00 12.3 6 Sudoeste 36 Sudoeste 0 -- -- 59
2021-02-09 18:00:00 12.7 9 Oeste 36 Noroeste 0 -- -- 56
2021-02-09 17:00:00 12.6 6 Oeste 27 Noroeste 0 -- -- 66
2021-02-09 16:00:00 12.7 4 Oeste 27 Noroeste 0 -- -- 68
2021-02-09 15:00:00 13.4 4 Oeste 25 Norte 0 -- -- 60
2021-02-09 14:00:00 13.5 7 Oeste 30 Noroeste 0 -- -- 50
2021-02-09 13:00:00 13.4 8 Oeste 31 Sudoeste 0 -- -- 50
2021-02-09 12:00:00 12.5 0 Calma 27 Oeste 0 -- -- 59
2021-02-09 11:00:00 11.7 8 Oeste 25 Oeste 0 -- -- 61
2021-02-09 10:00:00 7.8 0 Calma 10 Sudoeste 0 -- -- 91
2021-02-09 09:00:00 4.5 3 Sudoeste 9 Sudoeste 0 -- -- 91
2021-02-09 08:00:00 2.6 0 Calma 7 Este 0 -- -- 91
2021-02-09 07:00:00 2.2 0 Calma 9 Este 0 -- -- 91
2021-02-09 06:00:00 2.8 0 Calma 9 Noroeste 0 -- -- 91
2021-02-09 05:00:00 2.5 0 Calma 8 Sudeste 0 -- -- 91
2021-02-09 04:00:00 2.7 0 Calma 8 Este 0 -- -- 91
2021-02-09 03:00:00 2.4 0 Calma 8 Este 0 -- -- 91
2021-02-09 02:00:00 2.7 2 Este 6 Este 0 -- -- 91
2021-02-09 01:00:00 3.3 0 Calma 7 Este 0 -- -- 91
2021-02-09 00:00:00 3.5 0 Calma 6 Este 0 -- -- 91
2021-02-08 23:00:00 4.4 2 Este 5 Sudeste 0 -- -- 91
2021-02-08 22:00:00 4.8 0 Calma 5 Este 0 -- -- 91
2021-02-08 21:00:00 5.6 2 Este 5 Este 0 -- -- 90
2021-02-08 20:00:00 6.2 0 Calma 4 Este 0 -- -- 90
2021-02-08 19:00:00 7.8 0 Calma 5 Este 0 -- -- 87
2021-02-08 18:00:00 9.1 3 Este 9 Sudeste 0 -- -- 85
2021-02-08 17:00:00 8.9 0 Calma 10 Sudoeste 0 -- -- 85
2021-02-08 16:00:00 9.3 4 Sudoeste 21 Noroeste 0.1 -- -- 75
2021-02-08 15:00:00 10 7 Oeste 31 Sudoeste 0.1 -- -- 75
2021-02-08 14:00:00 11.3 9 Oeste 28 Oeste 0 -- -- 69
2021-02-08 13:00:00 12.3 9 Oeste 29 Oeste 0 -- -- 54
2021-02-08 12:00:00 12.4 9 Oeste 33 Sudoeste 0 -- -- 55
2021-02-08 11:00:00 9.8 8 Sudoeste 24 Sudoeste 0 -- -- 69
2021-02-08 10:00:00 7 4 Oeste 17 Oeste 0 -- -- 89
2021-02-08 09:00:00 4.5 0 Calma 9 Este 0 -- -- 91
2021-02-08 08:00:00 4 0 Calma 8 Norte 0 -- -- 91
2021-02-08 07:00:00 4.2 0 Calma 11 Sur 0 -- -- 91
2021-02-08 06:00:00 4.6 3 Este 7 Este 0 -- -- 91
2021-02-08 05:00:00 4.5 0 Calma 7 Este 0 -- -- 91
2021-02-08 04:00:00 4.5 0 Calma 4 Oeste 0 -- -- 92
2021-02-08 03:00:00 4.8 0 Calma 5 Sudoeste 0 -- -- 91
2021-02-08 02:00:00 4.9 0 Calma 4 Norte 0 -- -- 91
2021-02-08 01:00:00 4.8 0 Calma 6 Este 0 -- -- 91
2021-02-08 00:00:00 4.8 0 Calma 5 Este 0 -- -- 91
2021-02-07 23:00:00 5 0 Calma 5 Sudoeste 0 -- -- 91
2021-02-07 22:00:00 5.1 3 Sudoeste 5 Oeste 0 -- -- 91
2021-02-07 21:00:00 5.1 0 Calma 4 Este 0 -- -- 91
2021-02-07 20:00:00 5.5 2 Este 5 Este 0 -- -- 91
2021-02-07 19:00:00 6.1 0 Calma 4 Norte 0 -- -- 91
2021-02-07 18:00:00 6.7 0 Calma 6 Norte 0 -- -- 90
2021-02-07 17:00:00 6.6 2 Norte 6 Noroeste 0 -- -- 88
2021-02-07 16:00:00 7.5 0 Calma 6 Norte 0 -- -- 89
2021-02-07 15:00:00 7.1 4 Norte 11 Noroeste 0 -- -- 89
2021-02-07 14:00:00 7.2 4 Norte 11 Noroeste 0.2 -- -- 89
2021-02-07 13:00:00 6.3 2 Norte 13 Norte 0.4 -- -- 90
2021-02-07 12:00:00 6.3 5 Norte 15 Norte 1.8 -- -- 90
2021-02-07 11:00:00 6.5 4 Norte 16 Este 1.3 -- -- 90
2021-02-07 10:00:00 6.7 5 Noroeste 17 Norte 1.7 -- -- 91
2021-02-07 09:00:00 7.8 3 Norte 15 Norte 0.6 -- -- 91
2021-02-07 08:00:00 8.9 2 Nordeste 8 Este 7.6 -- -- 91
2021-02-07 07:00:00 9 0 Calma 14 Oeste 7 -- -- 90
2021-02-07 06:00:00 9.7 0 Calma 10 Nordeste 0 -- -- 83
2021-02-07 05:00:00 10.7 0 Calma 8 Oeste 0 -- -- 76
2021-02-07 04:00:00 10.2 0 Calma 8 Sudoeste 0 -- -- 84
2021-02-07 03:00:00 8.6 0 Calma 6 Este 0 -- -- 91
2021-02-07 02:00:00 7.5 0 Calma 7 Nordeste 0 -- -- 91
2021-02-07 01:00:00 6.2 4 Este 6 Este 0 -- -- 91
2021-02-07 00:00:00 6.3 0 Calma 6 Este 0 -- -- 91
2021-02-06 23:00:00 6.9 0 Calma 5 Este 0 -- -- 91
2021-02-06 22:00:00 8.1 0 Calma 5 Noroeste 0 -- -- 91
2021-02-06 21:00:00 9.5 0 Calma 14 Sudoeste 0 -- -- 90
2021-02-06 20:00:00 12 4 Sudoeste 15 Sudoeste 0 -- -- 87
2021-02-06 19:00:00 12.2 3 Sudoeste 26 Sur 0 -- -- 84
2021-02-06 18:00:00 12.6 2 Sur 15 Oeste 0 -- -- 83
2021-02-06 17:00:00 13.5 2 Noroeste 26 Sudoeste 0 -- -- 84
2021-02-06 16:00:00 13.2 10 Sudoeste 26 Sudoeste 0 -- -- 84
2021-02-06 15:00:00 13.5 11 Sudoeste 27 Oeste 0 -- -- 80
2021-02-06 14:00:00 14.5 13 Sudoeste 26 Oeste 0 -- -- 75
2021-02-06 13:00:00 15.4 9 Sudoeste 27 Sur 0 -- -- 62
2021-02-06 12:00:00 15.7 3 Este 15 Norte 0 -- -- 69
2021-02-06 11:00:00 14.1 7 Norte 20 Este 0 -- -- 75
2021-02-06 10:00:00 12.9 6 Este 18 Este 0 -- -- 81
2021-02-06 09:00:00 12.4 5 Este 24 Este 0 -- -- 84
2021-02-06 08:00:00 12 8 Nordeste 21 Noroeste 0 -- -- 86
2021-02-06 07:00:00 11.6 10 Nordeste 24 Este 0 -- -- 86
2021-02-06 06:00:00 11 9 Norte 21 Norte 0 -- -- 83
2021-02-06 05:00:00 10.9 11 Norte 23 Norte 0 -- -- 82
2021-02-06 04:00:00 11.3 10 Este 24 Este 0 -- -- 81
2021-02-06 03:00:00 11.1 12 Este 28 Este 0 -- -- 81
2021-02-06 02:00:00 11.3 13 Este 24 Nordeste 0 -- -- 80
2021-02-06 01:00:00 11.3 6 Nordeste 22 Norte 0 -- -- 80
2021-02-06 00:00:00 11.2 6 Norte 19 Noroeste 0 -- -- 81
2021-02-05 23:00:00 11.1 0 Calma 19 Noroeste 0 -- -- 82
2021-02-05 22:00:00 11.1 3 Nordeste 18 Norte 0 -- -- 84
2021-02-05 21:00:00 11.3 6 Nordeste 14 Nordeste 0 -- -- 82
2021-02-05 20:00:00 11.8 6 Nordeste 16 Sudeste 0 -- -- 78
2021-02-05 19:00:00 12.7 6 Nordeste 15 Este 0 -- -- 72
2021-02-05 18:00:00 13.6 7 Este 17 Nordeste 0 -- -- 67
2021-02-05 17:00:00 13.8 9 Este 19 Este 0 -- -- 68
2021-02-05 16:00:00 15.9 8 Nordeste 22 Este 0 -- -- 54
2021-02-05 15:00:00 15.4 12 Este 28 Nordeste 0 -- -- 56
2021-02-05 14:00:00 14.8 14 Nordeste 28 Nordeste 0 -- -- 60
2021-02-05 13:00:00 14.5 11 Nordeste 24 Nordeste 0 -- -- 60
2021-02-05 12:00:00 13.5 13 Este 25 Este 0 -- -- 65
2021-02-05 11:00:00 11.7 9 Nordeste 27 Nordeste 0 -- -- 74
2021-02-05 10:00:00 11 10 Nordeste 27 Nordeste 0 -- -- 77
2021-02-05 09:00:00 10.2 10 Este 21 Nordeste 0 -- -- 83
2021-02-05 08:00:00 10 8 Nordeste 16 Nordeste 0 -- -- 83
2021-02-05 07:00:00 10.3 2 Este 7 Este 0 -- -- 84
2021-02-05 06:00:00 10 0 Calma 6 Noroeste 0 -- -- 85
2021-02-05 05:00:00 10 2 Norte 9 Noroeste 0 -- -- 84
2021-02-05 04:00:00 10 0 Calma 6 Este 0 -- -- 85
2021-02-05 03:00:00 10.1 0 Calma 7 Nordeste 0 -- -- 85
2021-02-05 02:00:00 10.4 0 Calma 9 Oeste 0 -- -- 85
2021-02-05 01:00:00 10.6 5 Oeste 11 Oeste 0 -- -- 86
2021-02-05 00:00:00 10.2 0 Calma 7 Oeste 0 -- -- 90
2021-02-04 23:00:00 9.9 0 Calma 4 Oeste 0 -- -- 90
2021-02-04 22:00:00 10 0 Calma 6 Noroeste 0 -- -- 90
2021-02-04 21:00:00 10 0 Calma 7 Sudoeste 0 -- -- 90
2021-02-04 20:00:00 10 5 Oeste 11 Sudoeste 0 -- -- 90
2021-02-04 19:00:00 9.9 5 Oeste 9 Oeste 0 -- -- 91
2021-02-04 18:00:00 9.8 4 Oeste 10 Oeste 0 -- -- 91
2021-02-04 17:00:00 10 5 Oeste 13 Sudoeste 0 -- -- 90
2021-02-04 16:00:00 10.8 3 Oeste 13 Oeste 0 -- -- 90
2021-02-04 15:00:00 11 6 Oeste 16 Oeste 0 -- -- 89
2021-02-04 14:00:00 12.2 5 Oeste 13 Sudoeste 0 -- -- 83
2021-02-04 13:00:00 12.1 6 Oeste 15 Oeste 0 -- -- 83
2021-02-04 12:00:00 12.5 3 Sudoeste 12 Oeste 0 -- -- 84
2021-02-04 11:00:00 11.1 4 Oeste 10 Oeste 0 -- -- 89
2021-02-04 10:00:00 10.6 3 Oeste 4 Oeste 0 -- -- 90
2021-02-04 09:00:00 8.1 0 Calma 6 Norte 0 -- -- 90
2021-02-04 08:00:00 7.4 2 Norte 13 Este 0 -- -- 90
2021-02-04 07:00:00 6.9 2 Este 7 Este 0 -- -- 90
2021-02-04 06:00:00 8.1 2 Este 8 Este 0 -- -- 90
2021-02-04 05:00:00 7.7 5 Este 8 Este 0 -- -- 90
2021-02-04 04:00:00 8.2 4 Este 8 Este 0 -- -- 90
2021-02-04 03:00:00 8 4 Este 6 Este 0 -- -- 90
2021-02-04 02:00:00 8.1 0 Calma 6 Este 0 -- -- 90
2021-02-04 01:00:00 8.1 3 Este 5 Este 0 -- -- 90
2021-02-04 00:00:00 8.8 2 Este 4 Nordeste 0 -- -- 89
2021-02-03 23:00:00 9.1 4 Este 6 Este 0 -- -- 89
2021-02-03 22:00:00 9.4 4 Este 6 Este 0 -- -- 88
2021-02-03 21:00:00 9.6 0 Calma 5 Este 0 -- -- 86
2021-02-03 20:00:00 10.6 0 Calma 5 Oeste 0 -- -- 84
2021-02-03 19:00:00 11.7 2 Este 11 Este 0 -- -- 80
2021-02-03 18:00:00 13.4 10 Este 22 Este 0 -- -- 71
2021-02-03 17:00:00 15.5 4 Sudoeste 13 Oeste 0 -- -- 62
2021-02-03 16:00:00 17.1 8 Sudoeste 27 Sur 0 -- -- 49
2021-02-03 15:00:00 18.8 5 Sudoeste 21 Sudeste 0 -- -- 45
2021-02-03 14:00:00 17.7 3 Sur 21 Oeste 0 -- -- 47
2021-02-03 13:00:00 17.1 7 Sudoeste 32 Sur 0 -- -- 49
2021-02-03 12:00:00 16.6 7 Sudoeste 24 Oeste 0 -- -- 49
2021-02-03 11:00:00 15.4 6 Sudoeste 24 Sudoeste 0 -- -- 50
2021-02-03 10:00:00 14.5 11 Oeste 34 Oeste 0 -- -- 52
2021-02-03 09:00:00 10.8 8 Oeste 23 Sudoeste 0 -- -- 76
2021-02-03 08:00:00 7.9 0 Calma 17 Sudoeste 0 -- -- 91
2021-02-03 07:00:00 6.1 0 Calma 9 Norte 0 -- -- 91
2021-02-03 06:00:00 6.2 0 Calma 9 Oeste 0 -- -- 91
2021-02-03 05:00:00 5.9 0 Calma 6 Noroeste 0 -- -- 91
2021-02-03 04:00:00 5.9 0 Calma 5 Este 0 -- -- 91
2021-02-03 03:00:00 6.8 0 Calma 10 Sudoeste 0 -- -- 90
2021-02-03 02:00:00 7.4 5 Oeste 17 Oeste 0 -- -- 90
2021-02-03 01:00:00 6.9 0 Calma 7 Sudoeste 0 -- -- 91
2021-02-03 00:00:00 7.3 0 Calma 18 Sudoeste 0 -- -- 90
2021-02-02 23:00:00 6.8 0 Calma 6 Este 0 -- -- 90
2021-02-02 22:00:00 7.3 0 Calma 6 Este 0 -- -- 90
2021-02-02 21:00:00 8 0 Calma 5 Este 0 -- -- 89
2021-02-02 20:00:00 9.2 2 Este 6 Este 0 -- -- 86
2021-02-02 19:00:00 10.9 2 Este 13 Sudoeste 0 -- -- 82
2021-02-02 18:00:00 12.9 6 Oeste 15 Oeste 0 -- -- 72
2021-02-02 17:00:00 14.2 9 Sudoeste 22 Oeste 0 -- -- 64
2021-02-02 16:00:00 14.2 12 Sudoeste 22 Sudoeste 0 -- -- 66
2021-02-02 15:00:00 15.4 5 Oeste 15 Oeste 0 -- -- 61
2021-02-02 14:00:00 15.4 2 Sudoeste 16 Oeste 0 -- -- 59
2021-02-02 13:00:00 14.6 4 Sudoeste 14 Oeste 0 -- -- 65
2021-02-02 12:00:00 14.1 6 Sudoeste 12 Oeste 0 -- -- 62
2021-02-02 11:00:00 10.3 0 Calma 10 Este 0 -- -- 84
2021-02-02 10:00:00 7.6 2 Este 8 Este 0 -- -- 91
2021-02-02 09:00:00 5.8 0 Calma 8 Este 0 -- -- 91
2021-02-02 08:00:00 5.1 3 Este 7 Este 0 -- -- 91
2021-02-02 07:00:00 5.1 0 Calma 7 Este 0 -- -- 91
2021-02-02 06:00:00 5.5 0 Calma 6 Este 0 -- -- 91
2021-02-02 05:00:00 5.1 3 Este 6 Este 0 -- -- 91
2021-02-02 04:00:00 5.7 5 Este 11 Este 0 -- -- 91
2021-02-02 03:00:00 5.4 5 Este 8 Este 0 -- -- 91
2021-02-02 02:00:00 5.8 2 Este 9 Este 0 -- -- 91
2021-02-02 01:00:00 5.8 2 Este 8 Este 0 -- -- 91
2021-02-02 00:00:00 6.3 5 Este 11 Este 0 -- -- 91
2021-02-01 23:00:00 6.4 6 Este 10 Este 0 -- -- 90
2021-02-01 22:00:00 6.5 0 Calma 7 Este 0 -- -- 90
2021-02-01 21:00:00 6.8 3 Este 7 Norte 0 -- -- 89
2021-02-01 20:00:00 7.3 0 Calma 5 Norte 0 -- -- 89
2021-02-01 19:00:00 8.5 0 Calma 5 Noroeste 0 -- -- 87
2021-02-01 18:00:00 10.4 0 Calma 9 Oeste 0 -- -- 81
2021-02-01 17:00:00 12.8 7 Oeste 15 Oeste 0 -- -- 66
2021-02-01 16:00:00 14.6 10 Oeste 18 Oeste 0 -- -- 57
2021-02-01 15:00:00 15.4 10 Oeste 17 Oeste 0 -- -- 60
2021-02-01 14:00:00 15 9 Oeste 20 Oeste 0 -- -- 59
2021-02-01 13:00:00 15.4 5 Sudeste 14 Sudeste 0 -- -- 52
2021-02-01 12:00:00 12.2 5 Sudeste 17 Este 0 -- -- 66
2021-02-01 11:00:00 10.3 4 Este 16 Este 0 -- -- 76
2021-02-01 10:00:00 6.8 3 Este 7 Este 0 -- -- 91
2021-02-01 09:00:00 4.8 3 Este 8 Este 0 -- -- 91
2021-02-01 08:00:00 4.4 0 Calma 5 Este 0 -- -- 91
2021-02-01 07:00:00 4.9 4 Este 9 Este 0 -- -- 90
2021-02-01 06:00:00 4.8 0 Calma 7 Norte 0 -- -- 90
2021-02-01 05:00:00 5.1 3 Este 8 Este 0 -- -- 90
2021-02-01 04:00:00 5.3 2 Este 8 Este 0 -- -- 89
2021-02-01 03:00:00 6.8 2 Sudeste 9 Este 0 -- -- 85
2021-02-01 02:00:00 8.8 0 Calma 21 Este 0 -- -- 80
2021-02-01 01:00:00 5.5 2 Este 8 Este 0 -- -- 90
2021-02-01 00:00:00 5.2 2 Este 7 Norte 0 -- -- 90
2021-01-31 23:00:00 5.6 2 Este 6 Este 0 -- -- 89
2021-01-31 22:00:00 6.3 4 Este 8 Este 0 -- -- 87
2021-01-31 21:00:00 6.8 3 Este 6 Este 0 -- -- 86
2021-01-31 20:00:00 8.3 0 Calma 5 Este 0 -- -- 84
2021-01-31 19:00:00 9.4 2 Este 5 Este 0 -- -- 80
2021-01-31 18:00:00 11.6 0 Calma 6 Oeste 0 -- -- 74
2021-01-31 17:00:00 12.4 3 Oeste 7 Oeste 0 -- -- 59
2021-01-31 16:00:00 14.4 3 Oeste 12 Sudoeste 0 -- -- 49
2021-01-31 15:00:00 15.2 5 Oeste 13 Oeste 0 -- -- 44
2021-01-31 14:00:00 14.1 9 Oeste 15 Oeste 0 -- -- 48
2021-01-31 13:00:00 14.2 6 Sudoeste 14 Oeste 0 -- -- 50
2021-01-31 12:00:00 10.3 4 Sudoeste 8 Oeste 0 -- -- 71
2021-01-31 11:00:00 7.6 0 Calma 5 Este 0 -- -- 91
2021-01-31 10:00:00 5.3 0 Calma 7 Este 0 -- -- 91
2021-01-31 09:00:00 3.9 2 Este 9 Este 0 -- -- 91
2021-01-31 08:00:00 4 2 Este 8 Este 0 -- -- 91
2021-01-31 07:00:00 4.2 0 Calma 8 Este 0 -- -- 91
2021-01-31 06:00:00 4.3 0 Calma 6 Este 0 -- -- 91
2021-01-31 05:00:00 4.7 3 Este 8 Este 0 -- -- 91
2021-01-31 04:00:00 4.7 0 Calma 6 Sudeste 0 -- -- 91
2021-01-31 03:00:00 5.1 2 Noroeste 9 Este 0 -- -- 91
2021-01-31 02:00:00 4.8 4 Este 6 Este 0 -- -- 91
2021-01-31 01:00:00 5.6 2 Este 7 Este 0 -- -- 91
2021-01-31 00:00:00 6.8 0 Calma 6 Este 0 -- -- 91